createdAt,value
2018-12-15T00:04:57.886Z,23.97
2018-12-15T00:10:03.991Z,22.27
2018-12-15T00:15:10.548Z,21.70
2018-12-15T00:20:16.159Z,29.13
2018-12-15T00:25:21.646Z,28.07
2018-12-15T00:30:27.361Z,21.07
2018-12-15T00:35:32.838Z,25.87
2018-12-15T00:40:38.362Z,21.50
2018-12-15T00:45:43.959Z,25.40
2018-12-15T00:50:49.511Z,22.97
2018-12-15T00:55:55.349Z,20.73
2018-12-15T01:01:01.277Z,24.17
2018-12-15T01:06:07.027Z,25.97
2018-12-15T01:11:12.620Z,21.50
2018-12-15T01:16:19.196Z,25.70
2018-12-15T01:21:24.816Z,23.77
2018-12-15T01:26:30.290Z,20.33
2018-12-15T01:31:37.582Z,24.47
2018-12-15T01:36:42.945Z,26.03
2018-12-15T01:41:48.410Z,24.13
2018-12-15T01:46:53.913Z,28.00
2018-12-15T01:51:59.340Z,22.20
2018-12-15T01:57:04.933Z,27.90
2018-12-15T02:02:10.873Z,21.93
2018-12-15T02:07:16.326Z,24.70
2018-12-15T02:12:21.793Z,27.60
2018-12-15T02:17:33.484Z,24.57
2018-12-15T02:22:34.919Z,24.80
2018-12-15T02:27:40.300Z,25.13
2018-12-15T02:32:45.663Z,23.67
2018-12-15T02:37:51.439Z,27.77
2018-12-15T02:42:56.742Z,25.93
2018-12-15T02:48:02.141Z,27.07
2018-12-15T02:53:07.589Z,26.43
2018-12-15T02:58:13.218Z,22.70
2018-12-15T03:03:18.590Z,23.07
2018-12-15T03:08:24.146Z,24.27
2018-12-15T03:13:30.113Z,27.13
2018-12-15T03:18:35.925Z,22.93
2018-12-15T03:23:41.329Z,25.93
2018-12-15T03:28:46.782Z,20.87
2018-12-15T03:33:52.203Z,21.07
2018-12-15T03:38:57.568Z,22.93
2018-12-15T03:44:03.106Z,27.73
2018-12-15T03:49:08.529Z,21.20
2018-12-15T03:54:14.165Z,19.67
2018-12-15T03:59:20.197Z,27.60
2018-12-15T04:04:25.856Z,22.20
2018-12-15T04:09:31.213Z,20.30
2018-12-15T04:14:36.577Z,18.40
2018-12-15T04:19:42.190Z,25.80
2018-12-15T04:24:48.010Z,20.90
2018-12-15T04:29:53.519Z,25.43
2018-12-15T04:34:58.967Z,28.53
2018-12-15T04:40:06.203Z,21.60
2018-12-15T04:45:11.506Z,20.33
2018-12-15T04:50:16.829Z,26.57
2018-12-15T04:55:22.910Z,23.00
2018-12-15T05:00:28.342Z,18.70
2018-12-15T05:05:33.688Z,21.97
2018-12-15T05:10:39.366Z,20.37
2018-12-15T05:15:44.983Z,19.83
2018-12-15T05:20:50.371Z,21.90
2018-12-15T05:25:55.832Z,28.03
2018-12-15T05:31:01.249Z,23.20
2018-12-15T05:36:06.551Z,24.87
2018-12-15T05:41:11.756Z,18.43
2018-12-15T05:46:17.429Z,16.40
2018-12-15T05:51:22.809Z,22.77
2018-12-15T05:56:28.504Z,19.87
2018-12-15T06:01:34.667Z,22.67
2018-12-15T06:06:40.495Z,20.80
2018-12-15T06:11:45.998Z,20.57
2018-12-15T06:16:51.438Z,28.20
2018-12-15T06:21:57.625Z,18.97
2018-12-15T06:27:02.975Z,22.33
2018-12-15T06:32:09.010Z,16.67
2018-12-15T06:37:14.511Z,21.47
2018-12-15T06:42:19.830Z,15.90
2018-12-15T06:47:25.143Z,19.77
2018-12-15T06:52:30.946Z,18.30
2018-12-15T06:57:36.194Z,24.30
2018-12-15T07:02:41.513Z,19.10
2018-12-15T07:07:46.910Z,21.20
2018-12-15T07:12:52.782Z,19.90
2018-12-15T07:17:58.252Z,15.80
2018-12-15T07:23:06.300Z,20.10
2018-12-15T07:28:12.198Z,18.20
2018-12-15T07:33:17.833Z,21.00
2018-12-15T07:38:23.389Z,18.80
2018-12-15T07:43:29.211Z,20.23
2018-12-15T07:48:34.811Z,21.97
2018-12-15T07:53:40.366Z,19.53
2018-12-15T07:58:46.019Z,20.30
2018-12-15T08:03:51.756Z,19.60
2018-12-15T08:08:58.637Z,18.60
2018-12-15T08:14:08.042Z,24.43
2018-12-15T08:19:13.548Z,22.03
2018-12-15T08:24:19.416Z,17.97
2018-12-15T08:29:25.011Z,19.07
2018-12-15T08:34:30.748Z,21.23
2018-12-15T08:39:36.556Z,22.83
2018-12-15T08:44:42.362Z,20.43
2018-12-15T08:49:49.106Z,25.20
2018-12-15T08:54:54.729Z,19.47
2018-12-15T09:00:01.097Z,17.93
2018-12-15T09:05:07.874Z,16.27
2018-12-15T09:10:15.085Z,16.57
2018-12-15T09:15:21.619Z,26.53
2018-12-15T09:20:27.170Z,19.37
2018-12-15T09:25:32.492Z,24.07
2018-12-15T09:30:38.211Z,20.97
2018-12-15T09:35:43.670Z,20.10
2018-12-15T09:40:49.331Z,16.53
2018-12-15T09:45:54.707Z,21.73
2018-12-15T09:51:00.421Z,20.10
2018-12-15T09:56:06.346Z,21.70
2018-12-15T10:01:11.896Z,17.90
2018-12-15T10:06:17.793Z,22.93
2018-12-15T10:11:23.536Z,20.90
2018-12-15T10:16:28.819Z,21.73
2018-12-15T10:21:35.426Z,23.17
2018-12-15T10:26:41.640Z,20.10
2018-12-15T10:32:55.519Z,19.50
2018-12-15T10:38:02.419Z,19.40
2018-12-15T10:43:08.230Z,23.80
2018-12-15T10:48:13.849Z,19.23
2018-12-15T10:53:20.760Z,21.03
2018-12-15T10:58:26.633Z,21.03
2018-12-15T11:03:32.232Z,18.70
2018-12-15T11:08:37.509Z,19.37
2018-12-15T11:13:42.832Z,22.30
2018-12-15T11:18:48.527Z,23.07
2018-12-15T11:23:54.076Z,22.43
2018-12-15T11:28:59.392Z,20.07
2018-12-15T11:34:05.093Z,23.37
2018-12-15T11:39:10.764Z,26.47
2018-12-15T11:44:16.278Z,20.30
2018-12-15T11:49:21.889Z,19.47
2018-12-15T11:54:27.375Z,17.80
2018-12-15T11:59:32.648Z,22.57
2018-12-15T12:04:38.373Z,17.53
2018-12-15T12:09:43.822Z,19.87
2018-12-15T12:14:49.331Z,25.97
2018-12-15T12:19:54.652Z,21.57
2018-12-15T12:25:00.206Z,20.10
2018-12-15T12:30:07.962Z,21.70
2018-12-15T12:35:13.477Z,21.57
2018-12-15T12:40:19.163Z,20.33
2018-12-15T12:45:24.673Z,27.50
2018-12-15T12:50:30.048Z,24.77
2018-12-15T12:55:35.559Z,22.07
2018-12-15T13:00:41.652Z,21.90
2018-12-15T13:05:47.202Z,20.20
2018-12-15T13:10:52.631Z,22.57
2018-12-15T13:15:58.129Z,20.57
2018-12-15T13:21:04.187Z,24.17
2018-12-15T13:26:10.846Z,23.80
2018-12-15T13:31:16.151Z,27.13
2018-12-15T13:36:21.600Z,27.83
2018-12-15T13:41:27.090Z,20.50
2018-12-15T13:46:33.229Z,39.70
2018-12-15T13:51:39.373Z,32.17
2018-12-15T13:56:46.011Z,36.13
2018-12-15T14:01:51.448Z,35.70
2018-12-15T14:06:56.870Z,34.23
2018-12-15T14:12:02.374Z,33.37
2018-12-15T14:17:08.138Z,35.10
2018-12-15T14:22:14.852Z,44.57
2018-12-15T14:27:20.429Z,40.83
2018-12-15T14:32:25.835Z,30.83
2018-12-15T14:37:31.343Z,34.70
2018-12-15T14:42:36.866Z,36.13
2018-12-15T14:47:42.434Z,31.60
2018-12-15T14:52:48.019Z,29.00
2018-12-15T14:57:53.390Z,33.90
2018-12-15T15:02:58.759Z,33.77
2018-12-15T15:08:04.912Z,38.83
2018-12-15T15:13:10.695Z,33.97
2018-12-15T15:18:16.454Z,61.00
2018-12-15T15:23:21.909Z,38.70
2018-12-15T15:28:27.566Z,32.23
2018-12-15T15:33:33.091Z,48.50
2018-12-15T15:38:38.585Z,33.43
2018-12-15T15:43:44.997Z,25.13
2018-12-15T15:48:50.735Z,26.40
2018-12-15T15:53:56.463Z,28.30
2018-12-15T15:59:01.869Z,31.27
2018-12-15T16:04:07.546Z,31.30
2018-12-15T16:09:12.830Z,25.67
2018-12-15T16:14:18.258Z,28.60
2018-12-15T16:19:24.059Z,29.40
2018-12-15T16:24:29.394Z,29.00
2018-12-15T16:29:34.928Z,31.30
2018-12-15T16:34:40.576Z,26.17
2018-12-15T16:39:46.034Z,25.90
2018-12-15T16:44:51.596Z,30.27
2018-12-15T16:49:57.183Z,31.00
2018-12-15T16:55:02.921Z,27.03
2018-12-15T17:00:13.323Z,30.70
2018-12-15T17:05:18.878Z,49.17
2018-12-15T17:10:24.275Z,34.10
2018-12-15T17:15:29.656Z,31.30
2018-12-15T17:20:35.363Z,29.13
2018-12-15T17:25:41.472Z,29.00
2018-12-15T17:30:46.824Z,25.70
2018-12-15T17:35:52.705Z,39.13
2018-12-15T17:40:58.352Z,33.27
2018-12-15T17:46:03.828Z,32.83
2018-12-15T17:51:09.068Z,30.87
2018-12-15T17:56:14.644Z,29.67
2018-12-15T18:01:20.164Z,31.47
2018-12-15T18:06:25.511Z,34.73
2018-12-15T18:11:31.223Z,33.40
2018-12-15T18:16:37.194Z,32.93
2018-12-15T18:21:43.236Z,30.37
2018-12-15T18:26:48.828Z,36.43
2018-12-15T18:31:55.491Z,41.77
2018-12-15T18:37:01.127Z,37.73
2018-12-15T18:42:10.778Z,43.70
2018-12-15T18:47:14.838Z,42.97
2018-12-15T18:52:20.274Z,34.20
2018-12-15T18:57:25.682Z,36.20
2018-12-15T19:02:31.501Z,41.27
2018-12-15T19:07:37.300Z,37.70
2018-12-15T19:12:44.204Z,41.93
2018-12-15T19:17:50.285Z,46.17
2018-12-15T19:22:55.784Z,46.07
2018-12-15T19:28:01.224Z,48.10
2018-12-15T19:33:07.431Z,41.43
2018-12-15T19:38:12.819Z,54.27
2018-12-15T19:43:18.353Z,45.30
2018-12-15T19:48:24.686Z,36.93
2018-12-15T19:53:30.071Z,39.40
2018-12-15T19:58:35.527Z,45.47
2018-12-15T20:03:41.153Z,43.33
2018-12-15T20:08:48.603Z,34.83
2018-12-15T20:13:54.664Z,44.47
2018-12-15T20:19:00.221Z,39.57
2018-12-15T20:24:06.267Z,35.33
2018-12-15T20:29:12.752Z,40.47
2018-12-15T20:34:18.273Z,34.70
2018-12-15T20:39:23.644Z,35.90
2018-12-15T20:44:29.220Z,36.63
2018-12-15T20:49:35.082Z,38.23
2018-12-15T20:54:41.557Z,35.37
2018-12-15T20:59:48.226Z,30.13
2018-12-15T21:04:54.240Z,27.97
2018-12-15T21:10:00.463Z,18.77
2018-12-15T21:15:20.327Z,22.30
2018-12-15T21:20:25.912Z,20.73
2018-12-15T21:25:31.487Z,24.43
2018-12-15T21:30:37.631Z,23.40
2018-12-15T21:35:43.881Z,21.43
2018-12-15T21:40:49.268Z,24.70
2018-12-15T21:45:54.809Z,19.53
2018-12-15T21:51:01.382Z,21.20
2018-12-15T21:56:07.520Z,18.70
2018-12-15T22:01:14.730Z,16.90
2018-12-15T22:06:20.560Z,15.03
2018-12-15T22:11:26.556Z,15.47
2018-12-15T22:16:31.953Z,15.30
2018-12-15T22:21:38.890Z,14.53
2018-12-15T22:26:45.209Z,15.37
2018-12-15T22:31:50.724Z,10.40
2018-12-15T22:36:56.223Z,11.33
2018-12-15T22:42:02.120Z,10.10
2018-12-15T22:47:07.875Z,9.00
2018-12-15T22:52:13.754Z,11.13
2018-12-15T22:57:19.110Z,10.63
2018-12-15T23:02:24.513Z,11.70
2018-12-15T23:07:31.947Z,13.13
2018-12-15T23:12:37.991Z,14.63
2018-12-15T23:17:43.679Z,11.80
2018-12-15T23:22:49.225Z,9.63
2018-12-15T23:27:54.756Z,8.90
2018-12-15T23:33:00.161Z,10.23
2018-12-15T23:38:06.004Z,8.30
2018-12-15T23:43:11.418Z,16.43
2018-12-15T23:48:16.871Z,7.90
2018-12-15T23:53:22.099Z,9.63
2018-12-15T23:58:27.608Z,14.03
